Time;durP1;ratioP1;P1;durP2;ratioP2;P2;SDS_P1;SDS_P2;PMS_P1;PMS_P2;Temp;Humidity;BMP_temperature;BMP_pressure;BME280_temperature;BME280_humidity;BME280_pressure;Samples;Min_cycle;Max_cycle;Signal;HPM_P1;HPM_P2
2023/07/24 00:02:16;;;;;;;11.50;5.57;;;18.00;99.90;;;;;;5041304;28;20033;-49
2023/07/24 00:04:42;;;;;;;15.93;6.10;;;17.90;99.90;;;;;;5045272;28;20045;-49
2023/07/24 00:07:07;;;;;;;16.58;6.43;;;17.90;99.90;;;;;;5024374;28;20613;-53
2023/07/24 00:09:33;;;;;;;12.70;6.15;;;17.90;99.90;;;;;;5043808;28;22148;-52
2023/07/24 00:11:59;;;;;;;11.52;5.78;;;17.90;99.90;;;;;;5043541;28;20041;-51
2023/07/24 00:14:24;;;;;;;11.60;5.47;;;17.80;99.90;;;;;;5016234;28;20303;-51
2023/07/24 00:16:50;;;;;;;10.93;5.57;;;17.80;99.90;;;;;;5029003;28;20047;-49
2023/07/24 00:19:16;;;;;;;11.82;5.53;;;17.80;99.90;;;;;;5046981;28;20511;-50
2023/07/24 00:21:42;;;;;;;13.48;5.45;;;17.80;99.90;;;;;;5031790;28;20047;-53
2023/07/24 00:24:07;;;;;;;10.82;5.75;;;17.80;99.90;;;;;;5028570;28;20590;-53
2023/07/24 00:26:33;;;;;;;10.35;5.70;;;17.80;99.90;;;;;;5015425;28;20069;-52
2023/07/24 00:29:00;;;;;;;12.80;5.40;;;17.80;99.90;;;;;;5032784;28;20211;-50
2023/07/24 00:31:26;;;;;;;9.57;5.10;;;17.70;99.90;;;;;;5036145;28;20048;-51
2023/07/24 00:33:51;;;;;;;12.55;5.72;;;17.70;99.90;;;;;;5050456;28;20048;-51
2023/07/24 00:36:17;;;;;;;13.73;5.68;;;17.70;99.90;;;;;;5017139;28;20037;-49
2023/07/24 00:38:43;;;;;;;11.68;6.03;;;17.70;99.90;;;;;;5048597;28;20037;-53
2023/07/24 00:41:08;;;;;;;13.55;6.25;;;17.70;99.90;;;;;;5029426;28;20063;-49
2023/07/24 00:43:34;;;;;;;15.15;6.68;;;17.60;99.90;;;;;;5014610;28;20033;-49
2023/07/24 00:46:00;;;;;;;10.93;6.07;;;17.70;99.90;;;;;;5048276;28;20040;-50
2023/07/24 00:48:27;;;;;;;10.60;5.65;;;17.60;99.90;;;;;;5028915;28;20052;-51
2023/07/24 00:50:54;;;;;;;13.43;6.43;;;17.60;99.90;;;;;;5029280;28;20038;-51
2023/07/24 00:53:20;;;;;;;12.85;7.10;;;17.60;99.90;;;;;;5013748;28;20037;-54
2023/07/24 00:55:46;;;;;;;14.43;6.85;;;17.70;99.90;;;;;;5044774;28;20490;-53
2023/07/24 00:58:12;;;;;;;15.38;7.18;;;17.60;99.90;;;;;;5040795;28;20507;-49
2023/07/24 01:00:41;;;;;;;14.18;7.20;;;17.60;99.90;;;;;;5023355;28;20040;-51
2023/07/24 01:03:07;;;;;;;11.25;6.00;;;17.60;99.90;;;;;;5011090;28;20547;-50
2023/07/24 01:05:33;;;;;;;17.02;6.65;;;17.60;99.90;;;;;;5026611;28;20121;-51
2023/07/24 01:07:58;;;;;;;16.02;7.07;;;17.60;99.90;;;;;;5024377;28;20033;-52
2023/07/24 01:10:24;;;;;;;16.13;7.63;;;17.60;99.90;;;;;;5005157;28;20055;-55
2023/07/24 01:13:06;;;;;;;15.93;6.72;;;17.60;99.90;;;;;;5040392;28;20558;-50
2023/07/24 01:15:42;;;;;;;15.90;6.93;;;17.60;99.90;;;;;;5044279;28;20167;-50
2023/07/24 01:18:14;;;;;;;15.63;7.13;;;17.50;99.90;;;;;;5025154;28;20041;-52
2023/07/24 01:20:49;;;;;;;16.80;7.85;;;17.50;99.90;;;;;;5046199;28;20038;-50
2023/07/24 01:23:43;;;;;;;14.50;7.78;;;17.50;99.90;;;;;;5026937;28;20047;-51
2023/07/24 01:26:10;;;;;;;15.85;6.93;;;17.50;99.90;;;;;;5041001;28;20124;-56
2023/07/24 01:28:36;;;;;;;18.48;7.65;;;17.50;99.90;;;;;;5021559;28;20049;-50
2023/07/24 01:31:02;;;;;;;16.70;7.07;;;17.50;99.90;;;;;;5037976;28;20037;-50
2023/07/24 01:33:28;;;;;;;12.43;7.45;;;17.50;99.90;;;;;;5030006;28;20694;-50
2023/07/24 01:35:56;;;;;;;13.48;7.70;;;17.50;99.90;;;;;;5013322;28;20037;-54
2023/07/24 01:38:25;;;;;;;17.55;7.93;;;17.50;99.90;;;;;;5029022;28;20287;-52
2023/07/24 01:40:52;;;;;;;14.82;7.25;;;17.40;99.90;;;;;;5028128;28;20037;-50
2023/07/24 01:43:18;;;;;;;14.40;8.25;;;17.50;99.90;;;;;;5046090;28;20037;-51
2023/07/24 01:45:44;;;;;;;19.33;7.00;;;17.50;99.90;;;;;;5042246;28;20114;-53
2023/07/24 01:48:10;;;;;;;14.65;7.38;;;17.50;99.90;;;;;;5022060;28;20132;-52
2023/07/24 01:50:35;;;;;;;13.82;7.50;;;17.50;99.90;;;;;;5009907;28;20033;-52
2023/07/24 01:53:01;;;;;;;13.65;7.45;;;17.50;99.90;;;;;;5046368;28;20103;-50
2023/07/24 01:55:27;;;;;;;16.92;7.68;;;17.50;99.90;;;;;;5011903;28;20062;-51
2023/07/24 01:57:53;;;;;;;13.52;7.03;;;17.50;99.90;;;;;;4994118;28;20070;-53
2023/07/24 02:00:18;;;;;;;13.68;7.72;;;17.50;99.90;;;;;;5014077;28;20045;-50
2023/07/24 02:02:44;;;;;;;18.85;8.55;;;17.60;99.90;;;;;;5016340;28;20103;-50
2023/07/24 02:05:10;;;;;;;19.30;8.00;;;17.60;99.90;;;;;;5011172;28;20466;-53
2023/07/24 02:07:35;;;;;;;11.77;7.68;;;17.60;99.90;;;;;;5013634;28;20064;-53
2023/07/24 02:10:01;;;;;;;11.30;7.40;;;17.60;99.90;;;;;;5040902;28;20067;-53
2023/07/24 02:12:27;;;;;;;12.20;7.20;;;17.60;99.90;;;;;;5022302;28;20403;-54
2023/07/24 02:14:54;;;;;;;14.60;7.95;;;17.60;99.90;;;;;;5018761;28;20567;-50
2023/07/24 02:17:20;;;;;;;13.82;8.00;;;17.60;99.90;;;;;;5052022;28;20048;-50
2023/07/24 02:19:46;;;;;;;13.57;7.75;;;17.60;99.90;;;;;;5046393;28;20103;-51
2023/07/24 02:22:12;;;;;;;14.50;7.95;;;17.60;99.90;;;;;;5044505;28;20060;-52
2023/07/24 02:24:37;;;;;;;14.60;8.48;;;17.60;99.90;;;;;;5040135;28;20045;-53
2023/07/24 02:27:05;;;;;;;12.57;7.85;;;17.60;99.90;;;;;;5026233;28;20045;-50
2023/07/24 02:29:31;;;;;;;17.00;7.93;;;17.60;99.90;;;;;;5029737;28;20052;-51
2023/07/24 02:31:58;;;;;;;18.23;8.82;;;17.60;99.90;;;;;;5048714;28;20044;-50
2023/07/24 02:34:26;;;;;;;17.30;8.15;;;17.60;99.90;;;;;;5035235;28;20140;-52
2023/07/24 02:36:54;;;;;;;16.42;7.97;;;17.60;99.90;;;;;;5036319;28;20037;-53
2023/07/24 02:39:21;;;;;;;13.48;7.40;;;17.60;99.90;;;;;;5024199;28;20072;-49
2023/07/24 02:41:48;;;;;;;16.52;7.45;;;17.60;99.90;;;;;;5029188;28;20037;-51
2023/07/24 02:44:14;;;;;;;16.65;7.90;;;17.60;99.90;;;;;;5007393;28;20056;-57
2023/07/24 02:46:39;;;;;;;13.18;7.85;;;17.60;99.90;;;;;;4997316;28;20261;-52
2023/07/24 02:49:05;;;;;;;14.10;7.60;;;17.60;99.90;;;;;;5042003;28;20040;-53
2023/07/24 02:51:31;;;;;;;16.90;7.75;;;17.60;99.90;;;;;;5028757;28;20073;-54
2023/07/24 02:53:57;;;;;;;18.67;8.30;;;17.60;99.90;;;;;;5008322;28;20041;-55
2023/07/24 02:56:23;;;;;;;12.93;7.60;;;17.60;99.90;;;;;;5024090;28;20045;-54
2023/07/24 02:58:48;;;;;;;15.00;7.53;;;17.60;99.90;;;;;;5043305;28;20037;-51
2023/07/24 03:01:42;;;;;;;13.75;8.02;;;17.60;99.90;;;;;;5046891;28;20086;-50
2023/07/24 03:04:08;;;;;;;14.65;7.80;;;17.70;99.90;;;;;;5020823;28;20444;-52
2023/07/24 03:06:33;;;;;;;12.27;7.78;;;17.60;99.90;;;;;;5008118;28;20044;-54
2023/07/24 03:08:59;;;;;;;11.38;7.10;;;17.60;99.90;;;;;;5009519;28;20072;-50
2023/07/24 03:11:25;;;;;;;13.82;7.53;;;17.60;99.90;;;;;;5024073;28;20044;-50
2023/07/24 03:13:50;;;;;;;16.75;7.03;;;17.60;99.90;;;;;;5037126;28;20107;-52
2023/07/24 03:16:20;;;;;;;15.23;6.93;;;17.60;99.90;;;;;;5021122;28;20040;-54
2023/07/24 03:18:46;;;;;;;14.27;7.32;;;17.60;99.90;;;;;;5011781;28;20362;-53
2023/07/24 03:21:12;;;;;;;12.77;7.03;;;17.60;99.90;;;;;;5038702;28;20037;-50
2023/07/24 03:23:38;;;;;;;12.63;6.25;;;17.60;99.90;;;;;;5022420;28;20060;-50
2023/07/24 03:26:03;;;;;;;12.07;6.38;;;17.60;99.90;;;;;;5019753;28;20030;-52
2023/07/24 03:28:29;;;;;;;11.13;6.00;;;17.70;99.90;;;;;;5024512;28;20036;-52
2023/07/24 03:30:55;;;;;;;12.43;6.60;;;17.70;99.90;;;;;;5046222;28;20318;-52
2023/07/24 03:33:21;;;;;;;12.05;6.25;;;17.70;99.90;;;;;;5042204;28;20041;-52
2023/07/24 03:35:47;;;;;;;13.25;6.50;;;17.70;99.90;;;;;;5041822;28;20040;-50
2023/07/24 03:38:12;;;;;;;15.73;6.15;;;17.70;99.90;;;;;;4999767;28;20125;-50
2023/07/24 03:40:38;;;;;;;15.88;6.10;;;17.70;99.90;;;;;;5019960;28;20048;-50
2023/07/24 03:43:04;;;;;;;13.43;5.85;;;17.70;99.90;;;;;;5025151;28;20087;-50
2023/07/24 03:45:31;;;;;;;16.70;6.25;;;17.70;99.90;;;;;;5045994;28;20037;-54
2023/07/24 03:47:57;;;;;;;11.45;5.80;;;17.70;99.90;;;;;;5025178;28;20400;-50
2023/07/24 03:50:22;;;;;;;11.40;5.43;;;17.70;99.90;;;;;;5027879;28;20045;-51
2023/07/24 03:52:48;;;;;;;12.80;5.85;;;17.70;99.90;;;;;;5046079;28;20056;-53
2023/07/24 03:55:14;;;;;;;12.27;6.00;;;17.70;99.90;;;;;;5016956;28;20045;-50
2023/07/24 03:57:39;;;;;;;13.63;6.93;;;17.80;99.90;;;;;;5028195;28;20475;-52
2023/07/24 04:00:06;;;;;;;10.73;5.45;;;17.80;99.90;;;;;;5013348;28;20078;-50
2023/07/24 04:02:32;;;;;;;9.60;6.00;;;17.70;99.90;;;;;;5034107;28;20044;-52
2023/07/24 04:04:57;;;;;;;14.35;5.70;;;17.80;99.90;;;;;;5040898;28;20458;-50
2023/07/24 04:07:23;;;;;;;12.73;5.82;;;17.70;99.90;;;;;;5013110;28;20148;-50
2023/07/24 04:09:49;;;;;;;12.52;6.03;;;17.80;99.90;;;;;;5046390;28;20112;-52
2023/07/24 04:12:15;;;;;;;14.40;5.72;;;17.70;99.90;;;;;;5029346;28;20056;-55
2023/07/24 04:14:40;;;;;;;17.90;6.55;;;17.80;99.90;;;;;;5047259;28;20535;-50
2023/07/24 04:17:06;;;;;;;15.75;5.72;;;17.80;99.90;;;;;;5039910;22;20043;-56
2023/07/24 04:19:32;;;;;;;13.98;6.57;;;17.80;99.90;;;;;;5001704;28;20125;-54
2023/07/24 04:21:57;;;;;;;15.32;6.65;;;17.80;99.90;;;;;;5007697;28;20045;-54
2023/07/24 04:24:23;;;;;;;13.85;5.97;;;17.80;99.90;;;;;;5009316;28;20061;-54
2023/07/24 04:26:49;;;;;;;11.20;5.85;;;17.80;99.90;;;;;;5030922;28;20056;-54
2023/07/24 04:29:14;;;;;;;13.55;5.85;;;17.80;99.90;;;;;;4996164;28;20037;-54
2023/07/24 04:31:51;;;;;;;15.93;6.53;;;17.90;99.90;;;;;;5014251;28;20120;-53
2023/07/24 04:34:17;;;;;;;12.82;5.88;;;17.90;99.90;;;;;;5026145;28;20159;-55
2023/07/24 04:36:43;;;;;;;12.25;5.43;;;17.90;99.90;;;;;;4978013;28;20551;-55
2023/07/24 04:39:08;;;;;;;13.93;6.32;;;17.90;99.90;;;;;;5006450;28;20094;-54
2023/07/24 04:41:34;;;;;;;13.27;6.20;;;17.90;99.90;;;;;;5001279;28;20412;-55
2023/07/24 04:44:00;;;;;;;14.75;5.43;;;17.90;99.90;;;;;;5028274;28;20042;-54
2023/07/24 04:46:26;;;;;;;12.98;6.13;;;17.90;99.90;;;;;;5027610;28;20398;-55
2023/07/24 04:48:51;;;;;;;13.05;6.15;;;17.90;99.90;;;;;;5004392;28;20087;-55
2023/07/24 04:51:18;;;;;;;12.98;5.72;;;17.90;99.90;;;;;;5014236;28;20091;-55
2023/07/24 04:53:44;;;;;;;12.00;5.60;;;17.90;99.90;;;;;;5029536;28;20045;-55
2023/07/24 04:56:10;;;;;;;13.32;6.15;;;17.90;99.90;;;;;;4989858;28;20567;-55
2023/07/24 04:58:36;;;;;;;12.43;5.65;;;17.90;99.90;;;;;;5028387;28;20037;-55
2023/07/24 05:01:05;;;;;;;13.25;6.00;;;17.90;99.90;;;;;;5008854;28;20033;-55
2023/07/24 05:03:32;;;;;;;12.55;6.47;;;17.90;99.90;;;;;;5010851;28;20044;-54
2023/07/24 05:05:57;;;;;;;14.25;6.28;;;17.90;99.90;;;;;;5010212;28;20107;-55
2023/07/24 05:08:23;;;;;;;8.90;5.55;;;17.90;99.90;;;;;;5001806;28;20409;-55
2023/07/24 05:10:59;;;;;;;14.55;6.95;;;17.90;99.90;;;;;;5006535;28;20040;-55
2023/07/24 05:13:25;;;;;;;13.82;6.55;;;17.90;99.90;;;;;;5025224;28;20041;-55
2023/07/24 05:15:51;;;;;;;13.38;6.32;;;18.00;99.90;;;;;;5000316;28;20077;-55
2023/07/24 05:18:17;;;;;;;17.70;6.82;;;17.90;99.90;;;;;;5034679;28;20029;-54
2023/07/24 05:20:46;;;;;;;10.98;4.95;;;18.00;99.90;;;;;;4992577;28;20407;-52
2023/07/24 05:23:11;;;;;;;12.75;6.32;;;18.00;99.90;;;;;;5024504;28;20389;-52
2023/07/24 05:25:37;;;;;;;11.43;5.63;;;18.00;99.90;;;;;;5012549;28;20098;-55
2023/07/24 05:28:03;;;;;;;13.48;6.28;;;18.00;99.90;;;;;;5027031;28;20041;-55
2023/07/24 05:30:29;;;;;;;14.45;5.63;;;18.00;99.90;;;;;;5015504;28;20045;-55
2023/07/24 05:33:05;;;;;;;13.57;6.15;;;18.00;99.90;;;;;;5003640;28;20061;-51
2023/07/24 05:35:31;;;;;;;11.10;5.93;;;17.90;99.90;;;;;;5007313;28;20505;-53
2023/07/24 05:37:57;;;;;;;16.75;6.78;;;18.00;99.90;;;;;;4991944;28;20088;-55
2023/07/24 05:40:22;;;;;;;15.50;6.22;;;18.00;99.90;;;;;;4987073;28;20076;-53
2023/07/24 05:42:48;;;;;;;17.77;7.07;;;18.00;99.90;;;;;;4989221;28;20045;-54
2023/07/24 05:45:16;;;;;;;15.00;5.60;;;18.00;99.90;;;;;;5005882;28;20084;-54
2023/07/24 05:47:42;;;;;;;14.77;6.70;;;18.00;99.90;;;;;;5010428;28;20045;-52
2023/07/24 05:50:08;;;;;;;14.93;5.93;;;18.00;99.90;;;;;;5004008;28;20045;-54
2023/07/24 05:52:34;;;;;;;11.18;5.82;;;18.00;99.90;;;;;;4998180;28;20132;-52
2023/07/24 05:54:59;;;;;;;13.18;6.13;;;18.00;99.90;;;;;;4988507;28;20448;-53
2023/07/24 05:57:25;;;;;;;11.52;5.95;;;18.00;99.90;;;;;;5009555;28;20033;-55
2023/07/24 05:59:55;;;;;;;11.43;6.10;;;18.10;99.90;;;;;;4995815;28;20065;-54
2023/07/24 06:02:21;;;;;;;19.40;5.93;;;18.10;99.90;;;;;;5018813;28;20056;-53
2023/07/24 06:04:47;;;;;;;14.60;6.10;;;18.10;99.90;;;;;;5007597;28;20045;-55
2023/07/24 06:07:13;;;;;;;15.40;6.45;;;18.10;99.90;;;;;;5023249;28;20507;-55
2023/07/24 06:09:45;;;;;;;15.68;6.55;;;18.10;99.90;;;;;;5015307;28;20038;-52
2023/07/24 06:12:11;;;;;;;14.80;6.55;;;18.10;99.90;;;;;;5006188;28;20437;-53
2023/07/24 06:14:36;;;;;;;13.52;7.10;;;18.10;99.90;;;;;;5000564;28;20050;-54
2023/07/24 06:17:02;;;;;;;15.63;6.47;;;18.20;99.90;;;;;;5011065;28;20025;-54
2023/07/24 06:19:28;;;;;;;14.73;6.57;;;18.20;99.90;;;;;;4994012;28;20037;-54
2023/07/24 06:21:54;;;;;;;18.73;7.30;;;18.20;99.90;;;;;;5008650;28;20045;-54
2023/07/24 06:24:20;;;;;;;16.35;6.00;;;18.30;99.90;;;;;;5005084;28;20514;-55
2023/07/24 06:26:46;;;;;;;14.98;5.82;;;18.30;99.90;;;;;;5005901;28;20488;-52
2023/07/24 06:29:12;;;;;;;15.38;7.22;;;18.30;99.90;;;;;;4995390;28;20270;-55
2023/07/24 06:31:37;;;;;;;15.20;7.28;;;18.40;99.90;;;;;;5005105;28;20057;-54
2023/07/24 06:34:03;;;;;;;17.05;6.95;;;18.30;99.90;;;;;;5004914;28;20034;-53
2023/07/24 06:36:29;;;;;;;17.40;7.15;;;18.40;99.90;;;;;;5004758;28;20041;-52
2023/07/24 06:38:55;;;;;;;16.35;7.10;;;18.40;99.90;;;;;;4992899;28;20037;-53
2023/07/24 06:41:22;;;;;;;15.80;6.30;;;18.40;99.90;;;;;;4985127;28;20954;-54
2023/07/24 06:43:49;;;;;;;14.23;6.60;;;18.50;99.90;;;;;;5015938;28;20494;-53
2023/07/24 06:46:14;;;;;;;15.40;7.47;;;18.50;99.90;;;;;;4992340;28;20040;-54
2023/07/24 06:48:40;;;;;;;15.85;6.38;;;18.60;99.90;;;;;;5005862;28;20124;-55
2023/07/24 06:51:06;;;;;;;17.02;6.93;;;18.60;99.90;;;;;;5020316;28;20100;-54
2023/07/24 06:53:32;;;;;;;13.75;7.10;;;18.60;99.90;;;;;;5004828;28;20276;-55
2023/07/24 06:55:57;;;;;;;24.70;7.28;;;18.70;99.90;;;;;;5007035;28;20049;-54
2023/07/24 06:58:23;;;;;;;11.75;6.35;;;18.70;99.90;;;;;;5010691;28;20037;-53
2023/07/24 07:00:49;;;;;;;14.48;7.15;;;18.70;99.90;;;;;;4982294;28;20497;-54
2023/07/24 07:03:14;;;;;;;14.43;6.50;;;18.70;99.90;;;;;;5024835;28;20037;-51
2023/07/24 07:05:40;;;;;;;17.70;6.35;;;18.80;99.90;;;;;;5007415;28;20765;-54
2023/07/24 07:08:06;;;;;;;16.30;7.10;;;18.80;99.90;;;;;;5008097;28;20540;-53
2023/07/24 07:10:32;;;;;;;17.70;6.85;;;18.90;99.90;;;;;;5004621;28;20408;-51
2023/07/24 07:12:57;;;;;;;17.30;7.32;;;18.90;99.90;;;;;;5006469;28;20037;-54
2023/07/24 07:15:23;;;;;;;17.48;7.40;;;18.90;99.90;;;;;;4989352;28;20455;-54
2023/07/24 07:17:49;;;;;;;13.75;6.20;;;19.00;99.90;;;;;;4999927;28;20037;-54
2023/07/24 07:20:15;;;;;;;12.50;6.50;;;19.10;99.90;;;;;;5002486;28;20045;-52
2023/07/24 07:22:40;;;;;;;16.38;6.85;;;19.20;99.90;;;;;;5016867;28;20048;-54
2023/07/24 07:25:06;;;;;;;12.93;6.50;;;19.20;99.90;;;;;;5003877;28;20048;-54
2023/07/24 07:27:32;;;;;;;24.27;7.40;;;19.10;99.90;;;;;;5020163;28;20068;-54
2023/07/24 07:29:58;;;;;;;19.00;6.80;;;19.10;99.90;;;;;;5022484;28;20443;-54
2023/07/24 07:32:24;;;;;;;14.63;6.97;;;19.10;99.90;;;;;;5010315;28;20037;-53
2023/07/24 07:34:50;;;;;;;19.80;7.25;;;19.10;99.90;;;;;;4990611;28;20077;-57
2023/07/24 07:37:16;;;;;;;15.30;7.20;;;19.20;99.90;;;;;;5001856;28;20088;-55
2023/07/24 07:39:41;;;;;;;14.32;7.22;;;19.20;99.90;;;;;;5016878;28;20048;-55
2023/07/24 07:42:07;;;;;;;17.67;7.47;;;19.20;99.90;;;;;;4988200;28;20042;-55
2023/07/24 07:44:33;;;;;;;19.63;7.40;;;19.30;99.90;;;;;;4993728;28;20424;-55
2023/07/24 07:46:59;;;;;;;14.55;7.35;;;19.30;99.90;;;;;;5008475;28;20078;-55
2023/07/24 07:49:24;;;;;;;21.98;7.93;;;19.40;99.90;;;;;;5003287;28;20698;-57
2023/07/24 07:51:50;;;;;;;13.93;7.13;;;19.40;99.90;;;;;;4989413;28;20584;-57
2023/07/24 07:54:16;;;;;;;15.30;7.30;;;19.50;99.90;;;;;;4989892;28;20060;-54
2023/07/24 07:56:42;;;;;;;18.63;7.97;;;19.50;99.90;;;;;;5026547;28;20393;-54
2023/07/24 07:59:08;;;;;;;18.38;8.38;;;19.50;99.90;;;;;;5023760;28;20042;-55
2023/07/24 08:01:35;;;;;;;15.82;6.68;;;19.50;99.90;;;;;;5026082;28;20064;-55
2023/07/24 08:04:01;;;;;;;16.55;7.20;;;19.60;99.90;;;;;;5003597;28;20041;-57
2023/07/24 08:06:27;;;;;;;15.32;8.32;;;19.60;99.90;;;;;;5019402;28;20045;-57
2023/07/24 08:08:53;;;;;;;14.93;8.02;;;19.60;99.90;;;;;;5023589;28;20042;-54
2023/07/24 08:11:18;;;;;;;15.35;7.05;;;19.50;99.90;;;;;;4990783;28;20049;-54
2023/07/24 08:13:44;;;;;;;17.48;7.68;;;19.50;99.90;;;;;;4972637;28;20129;-55
2023/07/24 08:16:18;;;;;;;18.30;8.02;;;19.50;99.90;;;;;;5012789;28;20044;-55
2023/07/24 08:18:45;;;;;;;;;;;19.60;99.90;;;;;;5006295;28;20041;-57
2023/07/24 08:21:11;;;;;;;17.65;8.00;;;19.60;99.90;;;;;;4989197;28;19916;-57
2023/07/24 08:23:37;;;;;;;18.48;7.72;;;19.70;99.90;;;;;;5004355;28;20041;-55
2023/07/24 08:26:03;;;;;;;11.35;7.53;;;19.70;99.90;;;;;;5007349;28;20052;-55
2023/07/24 08:28:28;;;;;;;18.75;8.07;;;19.80;99.90;;;;;;5000182;28;20592;-55
2023/07/24 08:30:58;;;;;;;15.98;7.30;;;19.90;99.90;;;;;;4993879;28;20056;-54
2023/07/24 08:33:24;;;;;;;18.13;7.80;;;20.00;99.90;;;;;;5026067;28;20626;-58
2023/07/24 08:36:07;;;;;;;14.25;7.60;;;20.10;99.90;;;;;;4994301;28;20116;-55
2023/07/24 08:38:34;;;;;;;16.27;7.32;;;20.20;99.90;;;;;;5027432;28;20123;-55
2023/07/24 08:41:08;;;;;;;14.23;7.05;;;20.30;99.90;;;;;;5007062;28;20119;-55
2023/07/24 08:43:35;;;;;;;14.50;7.18;;;20.40;99.90;;;;;;4996291;28;20446;-58
2023/07/24 08:46:02;;;;;;;13.20;7.53;;;20.40;99.90;;;;;;5023134;28;20044;-55
2023/07/24 08:48:36;;;;;;;13.50;6.32;;;20.60;99.90;;;;;;5028078;28;20052;-55
2023/07/24 08:51:04;;;;;;;16.45;6.68;;;20.70;99.90;;;;;;5027417;28;20056;-56
2023/07/24 08:53:32;;;;;;;13.35;6.45;;;20.80;99.90;;;;;;5027824;28;20083;-55
2023/07/24 08:55:59;;;;;;;13.35;6.35;;;20.80;99.90;;;;;;5012130;28;20111;-57
2023/07/24 08:58:25;;;;;;;12.55;6.10;;;20.90;99.90;;;;;;5009420;28;20044;-54
2023/07/24 09:00:51;;;;;;;11.18;6.25;;;20.90;99.90;;;;;;5005996;28;20041;-55
2023/07/24 09:03:18;;;;;;;9.77;6.15;;;20.90;99.90;;;;;;5011816;28;20512;-55
2023/07/24 09:05:45;;;;;;;12.88;5.95;;;21.10;99.90;;;;;;5013494;28;20439;-54
2023/07/24 09:08:11;;;;;;;10.95;6.57;;;21.20;99.90;;;;;;5019227;28;20045;-57
2023/07/24 09:10:36;;;;;;;15.65;6.05;;;21.30;99.90;;;;;;5007855;28;20046;-59
2023/07/24 09:13:03;;;;;;;13.57;6.70;;;21.30;99.90;;;;;;4994609;28;20037;-57
2023/07/24 09:15:39;;;;;;;10.07;6.38;;;21.30;99.90;;;;;;5027999;28;20045;-56
2023/07/24 09:18:05;;;;;;;12.65;6.25;;;20.70;99.90;;;;;;5008935;28;20050;-56
2023/07/24 09:20:43;;;;;;;10.40;5.68;;;20.20;99.90;;;;;;4987457;28;20428;-56
2023/07/24 09:23:11;;;;;;;9.77;5.97;;;19.90;99.90;;;;;;5021644;28;20509;-52
2023/07/24 09:25:39;;;;;;;10.80;6.65;;;19.70;99.90;;;;;;4995073;28;20041;-54
2023/07/24 09:28:14;;;;;;;11.10;6.63;;;19.60;99.90;;;;;;5021331;28;20068;-57
2023/07/24 09:30:40;;;;;;;10.65;6.07;;;19.40;99.90;;;;;;5004008;28;20045;-56
2023/07/24 09:33:07;;;;;;;11.65;7.07;;;19.40;99.90;;;;;;4988596;28;20111;-56
2023/07/24 09:35:33;;;;;;;13.05;8.38;;;19.30;99.90;;;;;;4992463;28;20488;-56
2023/07/24 09:38:09;;;;;;;13.55;8.27;;;19.40;99.90;;;;;;5013515;28;20048;-56
2023/07/24 09:40:46;;;;;;;13.43;8.50;;;19.30;99.90;;;;;;5008587;28;20036;-54
2023/07/24 09:43:19;;;;;;;17.77;7.28;;;19.20;99.90;;;;;;5022531;28;20038;-54
2023/07/24 09:45:46;;;;;;;10.48;5.35;;;19.00;99.90;;;;;;5002943;28;20392;-54
2023/07/24 09:48:14;;;;;;;7.28;5.00;;;18.80;99.90;;;;;;5014869;28;20455;-56
2023/07/24 09:50:45;;;;;;;6.50;4.47;;;18.70;99.90;;;;;;4984441;28;20109;-52
2023/07/24 09:53:26;;;;;;;8.98;4.55;;;18.60;99.90;;;;;;5001913;28;20503;-53
2023/07/24 09:55:58;;;;;;;9.40;5.88;;;18.70;99.90;;;;;;5019229;28;20073;-55
2023/07/24 09:58:25;;;;;;;10.38;7.68;;;18.70;99.90;;;;;;5010068;28;20372;-55
2023/07/24 10:00:53;;;;;;;12.60;8.60;;;18.70;99.90;;;;;;5004106;28;20574;-54
2023/07/24 10:03:20;;;;;;;12.65;9.00;;;18.70;99.90;;;;;;5007973;28;20041;-52
2023/07/24 10:05:47;;;;;;;14.60;10.93;;;18.80;99.90;;;;;;5024297;28;20055;-58
2023/07/24 10:08:15;;;;;;;13.88;10.52;;;19.10;99.90;;;;;;5010533;28;20037;-55
2023/07/24 10:10:41;;;;;;;12.55;9.60;;;19.30;99.90;;;;;;5009063;28;20041;-58
2023/07/24 10:13:10;;;;;;;16.55;10.45;;;19.60;99.90;;;;;;5006649;28;20101;-56
2023/07/24 10:15:40;;;;;;;17.15;10.35;;;19.70;99.90;;;;;;5005077;28;20041;-56
2023/07/24 10:18:07;;;;;;;12.68;8.50;;;19.70;99.90;;;;;;4992085;23;20093;-55
2023/07/24 10:20:38;;;;;;;11.75;8.18;;;19.70;99.90;;;;;;4976777;28;20393;-54
2023/07/24 10:23:06;;;;;;;12.80;8.00;;;19.60;99.90;;;;;;4986191;28;20034;-55
2023/07/24 10:25:34;;;;;;;11.18;8.23;;;19.60;99.90;;;;;;4988249;28;20046;-53
2023/07/24 10:28:09;;;;;;;11.27;8.32;;;19.60;99.90;;;;;;4961290;28;20042;-55
2023/07/24 10:30:36;;;;;;;10.27;8.20;;;19.60;99.90;;;;;;5007089;28;20045;-54
2023/07/24 10:33:05;;;;;;;12.48;8.73;;;19.70;99.90;;;;;;4984280;28;20505;-55
2023/07/24 10:36:10;;;;;;;12.15;9.13;;;19.80;99.90;;;;;;4980775;28;20128;-56
2023/07/24 10:38:42;;;;;;;;;;;20.00;99.90;;;;;;4987465;28;20489;-54
2023/07/24 10:41:10;;;;;;;10.52;8.48;;;20.10;99.90;;;;;;4986083;28;19917;-55
2023/07/24 10:43:51;;;;;;;15.30;9.93;;;20.40;99.90;;;;;;5001415;28;20041;-52
2023/07/24 10:46:19;;;;;;;9.85;8.32;;;20.30;99.90;;;;;;4992494;28;20453;-52
2023/07/24 10:48:50;;;;;;;11.30;8.25;;;20.10;99.90;;;;;;4976129;28;20423;-54
2023/07/24 10:51:16;;;;;;;12.82;8.88;;;20.00;99.90;;;;;;5009539;28;20326;-53
2023/07/24 10:53:49;;;;;;;13.52;8.32;;;19.90;99.90;;;;;;4983397;28;20452;-53
2023/07/24 10:56:16;;;;;;;9.87;7.37;;;20.10;99.90;;;;;;5004937;28;20053;-52
2023/07/24 10:58:42;;;;;;;12.43;8.55;;;20.10;99.90;;;;;;4988170;28;20339;-53
2023/07/24 11:01:10;;;;;;;9.13;7.22;;;20.20;99.90;;;;;;5013619;28;20064;-55
2023/07/24 11:03:37;;;;;;;11.02;7.60;;;20.10;99.90;;;;;;4987801;28;20050;-55
2023/07/24 11:06:04;;;;;;;9.27;8.07;;;20.30;99.90;;;;;;4989273;28;20369;-53
2023/07/24 11:08:31;;;;;;;10.45;8.70;;;20.30;99.90;;;;;;5000801;28;20045;-54
2023/07/24 11:10:58;;;;;;;10.40;8.18;;;20.30;99.90;;;;;;4988338;28;20097;-55
2023/07/24 11:13:28;;;;;;;13.23;8.30;;;20.10;99.90;;;;;;4986344;28;20436;-54
2023/07/24 11:15:54;;;;;;;8.00;6.75;;;20.10;99.90;;;;;;4994926;28;20042;-54
2023/07/24 11:18:22;;;;;;;9.15;8.00;;;20.00;99.90;;;;;;5013257;28;20113;-54
2023/07/24 11:20:55;;;;;;;7.95;6.95;;;20.00;99.90;;;;;;5010300;28;20053;-55
2023/07/24 11:23:22;;;;;;;9.05;7.65;;;20.10;99.90;;;;;;5011382;28;20104;-54
2023/07/24 11:25:51;;;;;;;7.97;7.18;;;20.30;99.90;;;;;;4985806;28;20041;-55
2023/07/24 11:28:17;;;;;;;8.35;7.35;;;20.40;99.90;;;;;;4994408;28;20049;-53
2023/07/24 11:30:43;;;;;;;8.63;6.97;;;20.60;99.90;;;;;;5010030;28;20180;-53
2023/07/24 11:33:11;;;;;;;8.93;6.72;;;20.60;99.90;;;;;;4980298;28;20117;-53
2023/07/24 11:35:40;;;;;;;7.05;6.35;;;20.20;99.90;;;;;;4993693;28;20089;-53
2023/07/24 11:38:10;;;;;;;8.80;5.90;;;20.20;99.90;;;;;;5007587;28;20113;-56
2023/07/24 11:40:44;;;;;;;7.65;5.63;;;20.20;99.90;;;;;;4993001;28;20077;-55
2023/07/24 11:43:17;;;;;;;;;;;20.50;99.90;;;;;;4985809;28;20114;-55
2023/07/24 11:45:43;;;;;;;8.15;5.93;;;20.70;99.90;;;;;;4998030;28;19932;-55
2023/07/24 11:48:11;;;;;;;8.77;5.85;;;20.60;99.90;;;;;;4968435;28;20365;-51
2023/07/24 11:50:48;;;;;;;5.72;4.70;;;20.40;99.90;;;;;;4979456;28;20046;-55
2023/07/24 11:53:31;;;;;;;6.07;4.68;;;20.30;99.90;;;;;;4991829;28;20090;-53
2023/07/24 11:56:34;;;;;;;5.65;4.60;;;20.20;99.90;;;;;;4982505;28;20038;-55
2023/07/24 11:59:11;;;;;;;4.93;4.40;;;20.10;99.90;;;;;;4983520;28;20037;-56
2023/07/24 12:01:37;;;;;;;4.82;4.32;;;19.90;99.90;;;;;;4995423;28;20045;-55
2023/07/24 12:04:03;;;;;;;4.43;3.88;;;19.90;99.90;;;;;;5000554;28;20045;-53
2023/07/24 12:06:32;;;;;;;5.05;3.10;;;20.00;99.90;;;;;;5001440;28;20056;-54
2023/07/24 12:09:05;;;;;;;4.25;3.55;;;20.30;99.90;;;;;;4992330;28;20053;-54
2023/07/24 12:11:31;;;;;;;4.95;2.75;;;20.60;99.90;;;;;;4994578;28;20396;-55
2023/07/24 12:13:57;;;;;;;4.45;2.85;;;20.80;99.90;;;;;;5010689;28;20369;-55
2023/07/24 12:16:23;;;;;;;5.00;3.00;;;20.70;99.90;;;;;;4995224;28;20052;-54
2023/07/24 12:18:48;;;;;;;5.70;2.40;;;20.60;99.90;;;;;;5009918;28;20046;-56
2023/07/24 12:21:14;;;;;;;6.07;2.45;;;20.80;99.90;;;;;;4997627;28;20037;-55
2023/07/24 12:24:08;;;;;;;2.75;2.03;;;21.10;99.90;;;;;;4975858;28;20404;-55
2023/07/24 12:26:34;;;;;;;2.72;1.70;;;21.20;99.90;;;;;;5008864;28;20443;-55
2023/07/24 12:29:00;;;;;;;2.65;1.70;;;21.30;99.90;;;;;;4972593;28;20041;-54
2023/07/24 12:31:26;;;;;;;2.85;1.55;;;21.30;99.90;;;;;;5010134;28;20377;-55
2023/07/24 12:33:51;;;;;;;1.58;1.25;;;21.30;99.90;;;;;;5004245;28;20068;-54
2023/07/24 12:36:17;;;;;;;3.20;1.85;;;21.20;99.90;;;;;;4993773;28;20041;-55
2023/07/24 12:38:43;;;;;;;3.65;1.80;;;21.00;99.90;;;;;;4995175;28;20048;-55
2023/07/24 12:41:08;;;;;;;4.57;1.80;;;20.80;99.90;;;;;;4972097;28;21865;-55